sensor_id;sensor_type;location;lat;lon;timestamp;P1;durP1;ratioP1;P2;durP2;ratioP2
2257;SDS011;1136;51.574;7.706;2022-11-14T00:00:52;10.87;;;9.77;;
2257;SDS011;1136;51.574;7.706;2022-11-14T00:03:19;12.40;;;9.13;;
2257;SDS011;1136;51.574;7.706;2022-11-14T00:05:46;11.33;;;10.10;;
2257;SDS011;1136;51.574;7.706;2022-11-14T00:08:18;11.13;;;10.13;;
2257;SDS011;1136;51.574;7.706;2022-11-14T00:10:48;10.67;;;9.57;;
2257;SDS011;1136;51.574;7.706;2022-11-14T00:13:16;12.70;;;9.80;;
2257;SDS011;1136;51.574;7.706;2022-11-14T00:15:44;10.93;;;9.83;;
2257;SDS011;1136;51.574;7.706;2022-11-14T00:18:15;10.67;;;9.57;;
2257;SDS011;1136;51.574;7.706;2022-11-14T00:20:42;11.40;;;9.83;;
2257;SDS011;1136;51.574;7.706;2022-11-14T00:23:09;10.90;;;9.80;;
2257;SDS011;1136;51.574;7.706;2022-11-14T00:25:35;14.77;;;10.27;;
2257;SDS011;1136;51.574;7.706;2022-11-14T00:28:02;11.57;;;10.30;;
2257;SDS011;1136;51.574;7.706;2022-11-14T00:30:28;13.30;;;11.73;;
2257;SDS011;1136;51.574;7.706;2022-11-14T00:32:55;11.67;;;10.47;;
2257;SDS011;1136;51.574;7.706;2022-11-14T00:35:21;13.60;;;11.70;;
2257;SDS011;1136;51.574;7.706;2022-11-14T00:37:48;13.73;;;11.10;;
2257;SDS011;1136;51.574;7.706;2022-11-14T00:40:15;15.90;;;11.47;;
2257;SDS011;1136;51.574;7.706;2022-11-14T00:42:42;14.60;;;10.90;;
2257;SDS011;1136;51.574;7.706;2022-11-14T00:45:08;11.90;;;10.80;;
2257;SDS011;1136;51.574;7.706;2022-11-14T00:47:35;12.90;;;10.23;;
2257;SDS011;1136;51.574;7.706;2022-11-14T00:50:03;12.60;;;11.27;;
2257;SDS011;1136;51.574;7.706;2022-11-14T00:52:29;13.80;;;12.40;;
2257;SDS011;1136;51.574;7.706;2022-11-14T00:54:56;11.80;;;10.50;;
2257;SDS011;1136;51.574;7.706;2022-11-14T00:57:22;13.90;;;12.00;;
2257;SDS011;1136;51.574;7.706;2022-11-14T01:03:19;13.90;;;10.80;;
2257;SDS011;1136;51.574;7.706;2022-11-14T01:05:47;11.27;;;10.17;;
2257;SDS011;1136;51.574;7.706;2022-11-14T01:08:15;13.20;;;11.10;;
2257;SDS011;1136;51.574;7.706;2022-11-14T01:10:43;12.90;;;11.50;;
2257;SDS011;1136;51.574;7.706;2022-11-14T01:13:12;11.60;;;10.40;;
2257;SDS011;1136;51.574;7.706;2022-11-14T01:15:39;13.23;;;10.70;;
2257;SDS011;1136;51.574;7.706;2022-11-14T01:18:07;12.00;;;10.80;;
2257;SDS011;1136;51.574;7.706;2022-11-14T01:20:37;13.97;;;12.30;;
2257;SDS011;1136;51.574;7.706;2022-11-14T01:23:10;11.70;;;10.57;;
2257;SDS011;1136;51.574;7.706;2022-11-14T01:25:38;12.90;;;11.20;;
2257;SDS011;1136;51.574;7.706;2022-11-14T01:28:05;12.37;;;11.07;;
2257;SDS011;1136;51.574;7.706;2022-11-14T01:30:33;13.10;;;11.37;;
2257;SDS011;1136;51.574;7.706;2022-11-14T01:33:00;15.00;;;12.73;;
2257;SDS011;1136;51.574;7.706;2022-11-14T01:35:26;12.70;;;11.40;;
2257;SDS011;1136;51.574;7.706;2022-11-14T01:37:53;12.70;;;11.00;;
2257;SDS011;1136;51.574;7.706;2022-11-14T01:40:20;13.73;;;11.30;;
2257;SDS011;1136;51.574;7.706;2022-11-14T01:45:57;13.80;;;11.47;;
2257;SDS011;1136;51.574;7.706;2022-11-14T01:48:42;12.90;;;11.60;;
2257;SDS011;1136;51.574;7.706;2022-11-14T01:53:43;13.97;;;12.00;;
2257;SDS011;1136;51.574;7.706;2022-11-14T01:56:12;12.43;;;11.23;;
2257;SDS011;1136;51.574;7.706;2022-11-14T01:58:41;13.60;;;12.27;;
2257;SDS011;1136;51.574;7.706;2022-11-14T02:01:10;12.70;;;11.37;;
2257;SDS011;1136;51.574;7.706;2022-11-14T02:03:38;12.17;;;10.97;;
2257;SDS011;1136;51.574;7.706;2022-11-14T02:06:06;13.60;;;12.20;;
2257;SDS011;1136;51.574;7.706;2022-11-14T02:08:34;14.67;;;11.00;;
2257;SDS011;1136;51.574;7.706;2022-11-14T02:11:01;13.77;;;11.70;;
2257;SDS011;1136;51.574;7.706;2022-11-14T02:13:28;13.20;;;11.30;;
2257;SDS011;1136;51.574;7.706;2022-11-14T02:15:54;13.23;;;11.83;;
2257;SDS011;1136;51.574;7.706;2022-11-14T02:18:21;14.17;;;12.77;;
2257;SDS011;1136;51.574;7.706;2022-11-14T02:20:47;12.93;;;11.43;;
2257;SDS011;1136;51.574;7.706;2022-11-14T02:23:23;15.07;;;12.30;;
2257;SDS011;1136;51.574;7.706;2022-11-14T02:25:50;15.10;;;13.37;;
2257;SDS011;1136;51.574;7.706;2022-11-14T02:28:17;15.93;;;12.30;;
2257;SDS011;1136;51.574;7.706;2022-11-14T02:30:45;14.23;;;12.33;;
2257;SDS011;1136;51.574;7.706;2022-11-14T02:33:12;12.87;;;11.43;;
2257;SDS011;1136;51.574;7.706;2022-11-14T02:35:39;12.90;;;11.50;;
2257;SDS011;1136;51.574;7.706;2022-11-14T02:38:06;12.77;;;11.57;;
2257;SDS011;1136;51.574;7.706;2022-11-14T02:40:33;16.37;;;12.53;;
2257;SDS011;1136;51.574;7.706;2022-11-14T02:42:59;22.30;;;12.33;;
2257;SDS011;1136;51.574;7.706;2022-11-14T02:45:26;12.93;;;11.40;;
2257;SDS011;1136;51.574;7.706;2022-11-14T02:47:52;12.23;;;10.97;;
2257;SDS011;1136;51.574;7.706;2022-11-14T02:50:19;16.07;;;12.37;;
2257;SDS011;1136;51.574;7.706;2022-11-14T02:52:45;15.13;;;12.63;;
2257;SDS011;1136;51.574;7.706;2022-11-14T02:55:12;14.60;;;12.47;;
2257;SDS011;1136;51.574;7.706;2022-11-14T02:57:38;14.13;;;12.63;;
2257;SDS011;1136;51.574;7.706;2022-11-14T03:00:05;15.00;;;13.43;;
2257;SDS011;1136;51.574;7.706;2022-11-14T03:02:39;14.47;;;12.53;;
2257;SDS011;1136;51.574;7.706;2022-11-14T03:05:06;15.00;;;13.37;;
2257;SDS011;1136;51.574;7.706;2022-11-14T03:07:33;17.17;;;13.23;;
2257;SDS011;1136;51.574;7.706;2022-11-14T03:09:59;14.23;;;12.80;;
2257;SDS011;1136;51.574;7.706;2022-11-14T03:12:26;13.17;;;11.87;;
2257;SDS011;1136;51.574;7.706;2022-11-14T03:14:52;16.13;;;12.97;;
2257;SDS011;1136;51.574;7.706;2022-11-14T03:17:19;12.80;;;11.47;;
2257;SDS011;1136;51.574;7.706;2022-11-14T03:19:45;18.50;;;12.90;;
2257;SDS011;1136;51.574;7.706;2022-11-14T03:22:12;15.10;;;13.53;;
2257;SDS011;1136;51.574;7.706;2022-11-14T03:24:38;14.60;;;11.90;;
2257;SDS011;1136;51.574;7.706;2022-11-14T03:27:05;14.47;;;12.10;;
2257;SDS011;1136;51.574;7.706;2022-11-14T03:29:31;13.63;;;11.83;;
2257;SDS011;1136;51.574;7.706;2022-11-14T03:31:58;15.77;;;11.90;;
2257;SDS011;1136;51.574;7.706;2022-11-14T03:34:24;14.47;;;12.83;;
2257;SDS011;1136;51.574;7.706;2022-11-14T03:36:50;15.03;;;12.53;;
2257;SDS011;1136;51.574;7.706;2022-11-14T03:39:17;13.83;;;12.20;;
2257;SDS011;1136;51.574;7.706;2022-11-14T03:41:44;14.63;;;12.33;;
2257;SDS011;1136;51.574;7.706;2022-11-14T03:44:10;14.73;;;13.03;;
2257;SDS011;1136;51.574;7.706;2022-11-14T03:46:36;16.10;;;13.17;;
2257;SDS011;1136;51.574;7.706;2022-11-14T03:49:03;14.47;;;11.73;;
2257;SDS011;1136;51.574;7.706;2022-11-14T03:51:29;13.73;;;12.27;;
2257;SDS011;1136;51.574;7.706;2022-11-14T03:53:56;13.97;;;12.50;;
2257;SDS011;1136;51.574;7.706;2022-11-14T03:56:23;13.20;;;11.80;;
2257;SDS011;1136;51.574;7.706;2022-11-14T03:58:49;14.90;;;13.30;;
2257;SDS011;1136;51.574;7.706;2022-11-14T04:01:16;14.33;;;12.90;;
2257;SDS011;1136;51.574;7.706;2022-11-14T04:03:42;15.10;;;12.93;;
2257;SDS011;1136;51.574;7.706;2022-11-14T04:06:09;14.90;;;13.27;;
2257;SDS011;1136;51.574;7.706;2022-11-14T04:08:38;16.80;;;13.83;;
2257;SDS011;1136;51.574;7.706;2022-11-14T04:11:06;14.57;;;13.03;;
2257;SDS011;1136;51.574;7.706;2022-11-14T04:13:32;15.20;;;12.20;;
2257;SDS011;1136;51.574;7.706;2022-11-14T04:15:59;14.73;;;13.17;;
2257;SDS011;1136;51.574;7.706;2022-11-14T04:18:25;15.73;;;14.03;;
2257;SDS011;1136;51.574;7.706;2022-11-14T04:20:53;14.27;;;12.40;;
2257;SDS011;1136;51.574;7.706;2022-11-14T04:23:19;14.13;;;11.80;;
2257;SDS011;1136;51.574;7.706;2022-11-14T04:25:46;13.00;;;11.27;;
2257;SDS011;1136;51.574;7.706;2022-11-14T04:28:12;14.70;;;12.70;;
2257;SDS011;1136;51.574;7.706;2022-11-14T04:30:39;14.63;;;12.87;;
2257;SDS011;1136;51.574;7.706;2022-11-14T04:33:06;15.77;;;13.37;;
2257;SDS011;1136;51.574;7.706;2022-11-14T04:35:33;15.23;;;12.37;;
2257;SDS011;1136;51.574;7.706;2022-11-14T04:37:59;13.83;;;12.43;;
2257;SDS011;1136;51.574;7.706;2022-11-14T04:40:26;15.03;;;12.93;;
2257;SDS011;1136;51.574;7.706;2022-11-14T04:42:52;15.90;;;13.27;;
2257;SDS011;1136;51.574;7.706;2022-11-14T04:45:18;14.77;;;12.27;;
2257;SDS011;1136;51.574;7.706;2022-11-14T04:47:45;14.63;;;12.13;;
2257;SDS011;1136;51.574;7.706;2022-11-14T04:50:11;16.60;;;13.77;;
2257;SDS011;1136;51.574;7.706;2022-11-14T04:52:38;18.33;;;12.87;;
2257;SDS011;1136;51.574;7.706;2022-11-14T04:55:05;14.90;;;12.57;;
2257;SDS011;1136;51.574;7.706;2022-11-14T04:57:31;12.63;;;11.33;;
2257;SDS011;1136;51.574;7.706;2022-11-14T04:59:58;16.03;;;12.87;;
2257;SDS011;1136;51.574;7.706;2022-11-14T05:02:24;14.17;;;12.77;;
2257;SDS011;1136;51.574;7.706;2022-11-14T05:04:51;15.53;;;12.60;;
2257;SDS011;1136;51.574;7.706;2022-11-14T05:07:17;15.73;;;12.17;;
2257;SDS011;1136;51.574;7.706;2022-11-14T05:09:44;14.80;;;12.63;;
2257;SDS011;1136;51.574;7.706;2022-11-14T05:12:10;14.00;;;11.73;;
2257;SDS011;1136;51.574;7.706;2022-11-14T05:14:37;16.83;;;12.60;;
2257;SDS011;1136;51.574;7.706;2022-11-14T05:17:03;15.60;;;13.03;;
2257;SDS011;1136;51.574;7.706;2022-11-14T05:19:30;15.80;;;13.43;;
2257;SDS011;1136;51.574;7.706;2022-11-14T05:21:56;17.37;;;13.23;;
2257;SDS011;1136;51.574;7.706;2022-11-14T05:24:23;16.13;;;13.27;;
2257;SDS011;1136;51.574;7.706;2022-11-14T05:26:49;14.13;;;11.97;;
2257;SDS011;1136;51.574;7.706;2022-11-14T05:29:16;14.70;;;13.10;;
2257;SDS011;1136;51.574;7.706;2022-11-14T05:31:42;14.87;;;12.67;;
2257;SDS011;1136;51.574;7.706;2022-11-14T05:34:09;16.87;;;14.87;;
2257;SDS011;1136;51.574;7.706;2022-11-14T05:36:35;19.20;;;12.57;;
2257;SDS011;1136;51.574;7.706;2022-11-14T05:39:02;16.23;;;13.27;;
2257;SDS011;1136;51.574;7.706;2022-11-14T05:41:28;22.37;;;14.07;;
2257;SDS011;1136;51.574;7.706;2022-11-14T05:43:55;22.00;;;13.73;;
2257;SDS011;1136;51.574;7.706;2022-11-14T05:46:21;19.50;;;13.87;;
2257;SDS011;1136;51.574;7.706;2022-11-14T05:48:48;17.57;;;13.70;;
2257;SDS011;1136;51.574;7.706;2022-11-14T05:51:15;15.83;;;12.70;;
2257;SDS011;1136;51.574;7.706;2022-11-14T05:53:41;15.33;;;13.73;;
2257;SDS011;1136;51.574;7.706;2022-11-14T05:56:10;16.50;;;12.90;;
2257;SDS011;1136;51.574;7.706;2022-11-14T05:58:37;17.50;;;12.67;;
2257;SDS011;1136;51.574;7.706;2022-11-14T06:01:14;19.80;;;14.83;;
2257;SDS011;1136;51.574;7.706;2022-11-14T06:03:43;14.57;;;13.03;;
2257;SDS011;1136;51.574;7.706;2022-11-14T06:06:12;16.93;;;13.97;;
2257;SDS011;1136;51.574;7.706;2022-11-14T06:08:40;15.53;;;13.90;;
2257;SDS011;1136;51.574;7.706;2022-11-14T06:11:08;16.40;;;14.70;;
2257;SDS011;1136;51.574;7.706;2022-11-14T06:13:36;16.83;;;13.20;;
2257;SDS011;1136;51.574;7.706;2022-11-14T06:16:08;16.13;;;13.60;;
2257;SDS011;1136;51.574;7.706;2022-11-14T06:18:37;14.53;;;13.03;;
2257;SDS011;1136;51.574;7.706;2022-11-14T06:21:14;15.07;;;13.47;;
2257;SDS011;1136;51.574;7.706;2022-11-14T06:23:43;23.70;;;14.73;;
2257;SDS011;1136;51.574;7.706;2022-11-14T06:26:29;16.60;;;14.87;;
2257;SDS011;1136;51.574;7.706;2022-11-14T06:28:56;17.80;;;13.30;;
2257;SDS011;1136;51.574;7.706;2022-11-14T06:31:24;16.83;;;13.43;;
2257;SDS011;1136;51.574;7.706;2022-11-14T06:33:51;17.37;;;14.20;;
2257;SDS011;1136;51.574;7.706;2022-11-14T06:36:17;14.63;;;13.23;;
2257;SDS011;1136;51.574;7.706;2022-11-14T06:38:44;19.07;;;12.90;;
2257;SDS011;1136;51.574;7.706;2022-11-14T06:41:11;15.63;;;13.80;;
2257;SDS011;1136;51.574;7.706;2022-11-14T06:43:40;16.40;;;14.50;;
2257;SDS011;1136;51.574;7.706;2022-11-14T06:46:10;14.90;;;13.30;;
2257;SDS011;1136;51.574;7.706;2022-11-14T06:48:39;22.47;;;15.87;;
2257;SDS011;1136;51.574;7.706;2022-11-14T06:51:06;17.80;;;14.07;;
2257;SDS011;1136;51.574;7.706;2022-11-14T06:53:33;19.73;;;14.00;;
2257;SDS011;1136;51.574;7.706;2022-11-14T06:56:01;16.77;;;13.70;;
2257;SDS011;1136;51.574;7.706;2022-11-14T06:58:30;28.90;;;21.43;;
2257;SDS011;1136;51.574;7.706;2022-11-14T07:01:02;20.87;;;15.00;;
2257;SDS011;1136;51.574;7.706;2022-11-14T07:03:48;18.70;;;15.47;;
2257;SDS011;1136;51.574;7.706;2022-11-14T07:06:16;17.50;;;14.37;;
2257;SDS011;1136;51.574;7.706;2022-11-14T07:08:44;17.63;;;13.43;;
2257;SDS011;1136;51.574;7.706;2022-11-14T07:11:12;17.83;;;13.70;;
2257;SDS011;1136;51.574;7.706;2022-11-14T07:13:49;21.97;;;15.50;;
2257;SDS011;1136;51.574;7.706;2022-11-14T07:16:18;20.53;;;14.97;;
2257;SDS011;1136;51.574;7.706;2022-11-14T07:18:45;19.10;;;14.20;;
2257;SDS011;1136;51.574;7.706;2022-11-14T07:21:12;18.53;;;15.73;;
2257;SDS011;1136;51.574;7.706;2022-11-14T07:23:38;23.20;;;14.27;;
2257;SDS011;1136;51.574;7.706;2022-11-14T07:26:06;23.07;;;15.10;;
2257;SDS011;1136;51.574;7.706;2022-11-14T07:28:34;21.00;;;13.90;;
2257;SDS011;1136;51.574;7.706;2022-11-14T07:31:02;18.03;;;14.80;;
2257;SDS011;1136;51.574;7.706;2022-11-14T07:33:30;23.90;;;15.00;;
2257;SDS011;1136;51.574;7.706;2022-11-14T07:35:56;19.33;;;14.47;;
2257;SDS011;1136;51.574;7.706;2022-11-14T07:38:23;16.87;;;14.27;;
2257;SDS011;1136;51.574;7.706;2022-11-14T07:40:56;19.57;;;15.20;;
2257;SDS011;1136;51.574;7.706;2022-11-14T07:43:25;15.63;;;13.30;;
2257;SDS011;1136;51.574;7.706;2022-11-14T07:45:53;17.17;;;13.37;;
2257;SDS011;1136;51.574;7.706;2022-11-14T07:48:21;17.90;;;14.57;;
2257;SDS011;1136;51.574;7.706;2022-11-14T07:50:48;21.37;;;14.17;;
2257;SDS011;1136;51.574;7.706;2022-11-14T07:53:15;18.97;;;14.90;;
2257;SDS011;1136;51.574;7.706;2022-11-14T07:55:42;16.87;;;14.73;;
2257;SDS011;1136;51.574;7.706;2022-11-14T07:58:09;19.67;;;14.57;;
2257;SDS011;1136;51.574;7.706;2022-11-14T08:00:35;16.00;;;13.40;;
2257;SDS011;1136;51.574;7.706;2022-11-14T08:03:02;18.17;;;14.57;;
2257;SDS011;1136;51.574;7.706;2022-11-14T08:05:29;18.60;;;14.77;;
2257;SDS011;1136;51.574;7.706;2022-11-14T08:07:55;17.70;;;13.93;;
2257;SDS011;1136;51.574;7.706;2022-11-14T08:10:22;22.63;;;15.37;;
2257;SDS011;1136;51.574;7.706;2022-11-14T08:12:56;20.80;;;14.20;;
2257;SDS011;1136;51.574;7.706;2022-11-14T08:15:43;20.67;;;14.80;;
2257;SDS011;1136;51.574;7.706;2022-11-14T08:18:10;17.70;;;13.90;;
2257;SDS011;1136;51.574;7.706;2022-11-14T08:20:36;21.17;;;14.37;;
2257;SDS011;1136;51.574;7.706;2022-11-14T08:23:03;21.50;;;14.67;;
2257;SDS011;1136;51.574;7.706;2022-11-14T08:25:32;18.60;;;15.13;;
2257;SDS011;1136;51.574;7.706;2022-11-14T08:27:59;15.40;;;13.67;;
2257;SDS011;1136;51.574;7.706;2022-11-14T08:30:25;17.70;;;13.77;;
2257;SDS011;1136;51.574;7.706;2022-11-14T08:32:52;21.13;;;15.93;;
2257;SDS011;1136;51.574;7.706;2022-11-14T08:35:24;18.00;;;13.33;;
2257;SDS011;1136;51.574;7.706;2022-11-14T08:37:50;16.90;;;13.93;;
2257;SDS011;1136;51.574;7.706;2022-11-14T08:40:17;16.70;;;14.27;;
2257;SDS011;1136;51.574;7.706;2022-11-14T08:42:43;20.50;;;13.73;;
2257;SDS011;1136;51.574;7.706;2022-11-14T08:45:10;15.63;;;13.90;;
2257;SDS011;1136;51.574;7.706;2022-11-14T08:47:36;15.47;;;12.43;;
2257;SDS011;1136;51.574;7.706;2022-11-14T08:50:03;14.97;;;13.07;;
2257;SDS011;1136;51.574;7.706;2022-11-14T08:52:30;18.57;;;14.20;;
2257;SDS011;1136;51.574;7.706;2022-11-14T08:54:56;15.00;;;12.40;;
2257;SDS011;1136;51.574;7.706;2022-11-14T08:57:23;13.40;;;11.90;;
2257;SDS011;1136;51.574;7.706;2022-11-14T08:59:49;16.80;;;13.27;;
2257;SDS011;1136;51.574;7.706;2022-11-14T09:02:16;18.50;;;12.40;;
2257;SDS011;1136;51.574;7.706;2022-11-14T09:04:43;15.20;;;12.07;;
2257;SDS011;1136;51.574;7.706;2022-11-14T09:07:10;19.10;;;13.43;;
2257;SDS011;1136;51.574;7.706;2022-11-14T09:09:36;14.80;;;13.13;;
2257;SDS011;1136;51.574;7.706;2022-11-14T09:12:03;18.43;;;13.17;;
2257;SDS011;1136;51.574;7.706;2022-11-14T09:14:30;18.13;;;13.77;;
2257;SDS011;1136;51.574;7.706;2022-11-14T09:16:56;17.80;;;14.00;;
2257;SDS011;1136;51.574;7.706;2022-11-14T09:19:30;13.40;;;12.10;;
2257;SDS011;1136;51.574;7.706;2022-11-14T09:21:57;19.00;;;14.10;;
2257;SDS011;1136;51.574;7.706;2022-11-14T09:24:23;14.67;;;11.80;;
2257;SDS011;1136;51.574;7.706;2022-11-14T09:26:50;14.13;;;12.70;;
2257;SDS011;1136;51.574;7.706;2022-11-14T09:29:22;14.90;;;13.57;;
2257;SDS011;1136;51.574;7.706;2022-11-14T09:31:50;15.53;;;13.10;;
2257;SDS011;1136;51.574;7.706;2022-11-14T09:34:16;17.73;;;12.90;;
2257;SDS011;1136;51.574;7.706;2022-11-14T09:36:43;12.70;;;11.63;;
2257;SDS011;1136;51.574;7.706;2022-11-14T09:39:10;14.23;;;12.93;;
2257;SDS011;1136;51.574;7.706;2022-11-14T09:44:52;16.30;;;13.50;;
2257;SDS011;1136;51.574;7.706;2022-11-14T09:47:32;13.60;;;12.40;;
2257;SDS011;1136;51.574;7.706;2022-11-14T09:50:09;12.60;;;11.50;;
2257;SDS011;1136;51.574;7.706;2022-11-14T09:52:41;14.37;;;13.17;;
2257;SDS011;1136;51.574;7.706;2022-11-14T09:58:15;14.70;;;13.40;;
2257;SDS011;1136;51.574;7.706;2022-11-14T10:06:20;13.07;;;11.97;;
2257;SDS011;1136;51.574;7.706;2022-11-14T10:11:39;13.57;;;12.47;;
2257;SDS011;1136;51.574;7.706;2022-11-14T10:19:41;14.53;;;13.13;;
2257;SDS011;1136;51.574;7.706;2022-11-14T10:27:42;14.43;;;12.87;;
2257;SDS011;1136;51.574;7.706;2022-11-14T10:30:21;15.73;;;13.80;;
2257;SDS011;1136;51.574;7.706;2022-11-14T10:35:24;17.47;;;14.07;;
2257;SDS011;1136;51.574;7.706;2022-11-14T10:40:35;19.87;;;13.97;;
2257;SDS011;1136;51.574;7.706;2022-11-14T10:43:09;25.20;;;13.23;;
2257;SDS011;1136;51.574;7.706;2022-11-14T10:45:42;15.80;;;14.03;;
2257;SDS011;1136;51.574;7.706;2022-11-14T10:48:13;15.13;;;13.20;;
2257;SDS011;1136;51.574;7.706;2022-11-14T10:50:51;16.17;;;13.83;;
2257;SDS011;1136;51.574;7.706;2022-11-14T10:53:22;15.90;;;13.47;;
2257;SDS011;1136;51.574;7.706;2022-11-14T10:55:50;15.70;;;13.10;;
2257;SDS011;1136;51.574;7.706;2022-11-14T10:58:33;14.63;;;12.33;;
2257;SDS011;1136;51.574;7.706;2022-11-14T11:06:43;19.60;;;15.70;;
2257;SDS011;1136;51.574;7.706;2022-11-14T11:09:17;15.13;;;13.07;;
2257;SDS011;1136;51.574;7.706;2022-11-14T11:12:15;14.20;;;12.63;;
2257;SDS011;1136;51.574;7.706;2022-11-14T11:14:43;14.67;;;12.50;;
2257;SDS011;1136;51.574;7.706;2022-11-14T11:19:38;12.47;;;11.27;;
2257;SDS011;1136;51.574;7.706;2022-11-14T11:22:08;14.73;;;11.17;;
2257;SDS011;1136;51.574;7.706;2022-11-14T11:24:50;11.10;;;10.10;;
2257;SDS011;1136;51.574;7.706;2022-11-14T11:27:26;13.03;;;11.77;;
2257;SDS011;1136;51.574;7.706;2022-11-14T11:32:53;11.30;;;10.30;;
2257;SDS011;1136;51.574;7.706;2022-11-14T11:35:20;13.47;;;12.27;;
2257;SDS011;1136;51.574;7.706;2022-11-14T11:37:53;11.37;;;10.47;;
2257;SDS011;1136;51.574;7.706;2022-11-14T11:40:23;11.60;;;10.50;;
2257;SDS011;1136;51.574;7.706;2022-11-14T11:45:44;11.60;;;10.50;;
2257;SDS011;1136;51.574;7.706;2022-11-14T11:50:43;11.53;;;10.63;;
2257;SDS011;1136;51.574;7.706;2022-11-14T11:55:45;11.93;;;10.93;;
2257;SDS011;1136;51.574;7.706;2022-11-14T11:58:26;11.90;;;10.90;;
2257;SDS011;1136;51.574;7.706;2022-11-14T12:00:56;12.60;;;11.40;;
2257;SDS011;1136;51.574;7.706;2022-11-14T12:03:23;11.30;;;10.20;;
2257;SDS011;1136;51.574;7.706;2022-11-14T12:05:57;12.53;;;11.33;;
2257;SDS011;1136;51.574;7.706;2022-11-14T12:11:20;12.30;;;11.30;;
2257;SDS011;1136;51.574;7.706;2022-11-14T12:16:45;12.73;;;11.67;;
2257;SDS011;1136;51.574;7.706;2022-11-14T12:19:41;18.73;;;11.13;;
2257;SDS011;1136;51.574;7.706;2022-11-14T12:27:56;12.83;;;11.53;;
2257;SDS011;1136;51.574;7.706;2022-11-14T12:30:35;13.60;;;12.17;;
2257;SDS011;1136;51.574;7.706;2022-11-14T12:33:04;12.33;;;11.13;;
2257;SDS011;1136;51.574;7.706;2022-11-14T12:35:34;13.70;;;12.30;;
2257;SDS011;1136;51.574;7.706;2022-11-14T12:38:11;13.10;;;11.57;;
2257;SDS011;1136;51.574;7.706;2022-11-14T12:40:40;11.90;;;10.63;;
2257;SDS011;1136;51.574;7.706;2022-11-14T12:46:11;11.10;;;10.00;;
2257;SDS011;1136;51.574;7.706;2022-11-14T12:48:42;12.00;;;10.77;;
2257;SDS011;1136;51.574;7.706;2022-11-14T12:53:53;14.67;;;11.50;;
2257;SDS011;1136;51.574;7.706;2022-11-14T13:12:33;18.73;;;12.03;;
2257;SDS011;1136;51.574;7.706;2022-11-14T13:21:13;21.07;;;12.40;;
2257;SDS011;1136;51.574;7.706;2022-11-14T13:24:00;13.73;;;11.00;;
2257;SDS011;1136;51.574;7.706;2022-11-14T13:28:57;14.93;;;9.53;;
2257;SDS011;1136;51.574;7.706;2022-11-14T13:40:09;10.20;;;9.20;;
2257;SDS011;1136;51.574;7.706;2022-11-14T13:45:24;11.00;;;9.30;;
2257;SDS011;1136;51.574;7.706;2022-11-14T13:50:42;9.30;;;8.30;;
2257;SDS011;1136;51.574;7.706;2022-11-14T13:53:14;10.73;;;9.60;;
2257;SDS011;1136;51.574;7.706;2022-11-14T13:55:53;11.30;;;8.80;;
2257;SDS011;1136;51.574;7.706;2022-11-14T14:12:32;9.97;;;8.97;;
2257;SDS011;1136;51.574;7.706;2022-11-14T14:25:20;14.47;;;11.17;;
2257;SDS011;1136;51.574;7.706;2022-11-14T14:28:02;13.63;;;10.70;;
2257;SDS011;1136;51.574;7.706;2022-11-14T14:33:38;16.50;;;11.33;;
2257;SDS011;1136;51.574;7.706;2022-11-14T14:36:18;10.30;;;9.30;;
2257;SDS011;1136;51.574;7.706;2022-11-14T14:41:42;16.20;;;10.80;;
2257;SDS011;1136;51.574;7.706;2022-11-14T14:46:48;15.50;;;9.50;;
2257;SDS011;1136;51.574;7.706;2022-11-14T14:49:34;10.70;;;9.60;;
2257;SDS011;1136;51.574;7.706;2022-11-14T14:52:17;12.23;;;9.27;;
2257;SDS011;1136;51.574;7.706;2022-11-14T14:54:54;12.00;;;9.50;;
2257;SDS011;1136;51.574;7.706;2022-11-14T14:57:21;10.83;;;9.40;;
2257;SDS011;1136;51.574;7.706;2022-11-14T14:59:58;12.90;;;10.57;;
2257;SDS011;1136;51.574;7.706;2022-11-14T15:02:25;9.80;;;8.90;;
2257;SDS011;1136;51.574;7.706;2022-11-14T15:04:51;12.33;;;10.17;;
2257;SDS011;1136;51.574;7.706;2022-11-14T15:07:22;10.77;;;9.63;;
2257;SDS011;1136;51.574;7.706;2022-11-14T15:09:57;9.17;;;7.93;;
2257;SDS011;1136;51.574;7.706;2022-11-14T15:12:25;10.77;;;8.20;;
2257;SDS011;1136;51.574;7.706;2022-11-14T15:14:54;8.83;;;7.93;;
2257;SDS011;1136;51.574;7.706;2022-11-14T15:17:21;9.33;;;8.13;;
2257;SDS011;1136;51.574;7.706;2022-11-14T15:19:49;10.10;;;9.10;;
2257;SDS011;1136;51.574;7.706;2022-11-14T15:25:02;11.97;;;9.00;;
2257;SDS011;1136;51.574;7.706;2022-11-14T15:27:30;10.20;;;9.00;;
2257;SDS011;1136;51.574;7.706;2022-11-14T15:30:03;9.97;;;8.10;;
2257;SDS011;1136;51.574;7.706;2022-11-14T15:32:31;9.87;;;8.87;;
2257;SDS011;1136;51.574;7.706;2022-11-14T15:37:34;11.30;;;9.17;;
2257;SDS011;1136;51.574;7.706;2022-11-14T15:40:17;12.23;;;10.93;;
2257;SDS011;1136;51.574;7.706;2022-11-14T15:42:45;10.60;;;9.53;;
2257;SDS011;1136;51.574;7.706;2022-11-14T15:45:22;10.27;;;9.00;;
2257;SDS011;1136;51.574;7.706;2022-11-14T15:47:59;14.03;;;11.63;;
2257;SDS011;1136;51.574;7.706;2022-11-14T15:50:30;13.40;;;11.00;;
2257;SDS011;1136;51.574;7.706;2022-11-14T15:53:05;12.80;;;11.60;;
2257;SDS011;1136;51.574;7.706;2022-11-14T15:55:40;15.43;;;10.33;;
2257;SDS011;1136;51.574;7.706;2022-11-14T15:58:10;10.90;;;9.70;;
2257;SDS011;1136;51.574;7.706;2022-11-14T16:00:54;11.53;;;9.20;;
2257;SDS011;1136;51.574;7.706;2022-11-14T16:03:21;11.30;;;10.10;;
2257;SDS011;1136;51.574;7.706;2022-11-14T16:05:48;14.00;;;10.17;;
2257;SDS011;1136;51.574;7.706;2022-11-14T16:08:14;11.37;;;10.17;;
2257;SDS011;1136;51.574;7.706;2022-11-14T16:10:41;12.23;;;9.60;;
2257;SDS011;1136;51.574;7.706;2022-11-14T16:13:07;9.83;;;8.93;;
2257;SDS011;1136;51.574;7.706;2022-11-14T16:15:36;12.53;;;11.23;;
2257;SDS011;1136;51.574;7.706;2022-11-14T16:18:03;11.83;;;10.57;;
2257;SDS011;1136;51.574;7.706;2022-11-14T16:20:30;32.80;;;26.97;;
2257;SDS011;1136;51.574;7.706;2022-11-14T16:23:02;15.67;;;12.53;;
2257;SDS011;1136;51.574;7.706;2022-11-14T16:25:30;15.20;;;11.77;;
2257;SDS011;1136;51.574;7.706;2022-11-14T16:27:57;16.97;;;11.60;;
2257;SDS011;1136;51.574;7.706;2022-11-14T16:30:24;12.83;;;11.53;;
2257;SDS011;1136;51.574;7.706;2022-11-14T16:32:51;13.90;;;12.40;;
2257;SDS011;1136;51.574;7.706;2022-11-14T16:35:18;15.00;;;12.50;;
2257;SDS011;1136;51.574;7.706;2022-11-14T16:37:46;11.77;;;10.57;;
2257;SDS011;1136;51.574;7.706;2022-11-14T16:40:14;14.17;;;11.07;;
2257;SDS011;1136;51.574;7.706;2022-11-14T16:42:48;12.57;;;11.27;;
2257;SDS011;1136;51.574;7.706;2022-11-14T16:45:15;13.20;;;11.40;;
2257;SDS011;1136;51.574;7.706;2022-11-14T16:47:43;11.10;;;9.50;;
2257;SDS011;1136;51.574;7.706;2022-11-14T16:50:09;14.23;;;10.07;;
2257;SDS011;1136;51.574;7.706;2022-11-14T16:52:36;15.27;;;12.20;;
2257;SDS011;1136;51.574;7.706;2022-11-14T16:55:08;17.20;;;14.20;;
2257;SDS011;1136;51.574;7.706;2022-11-14T16:57:36;16.10;;;11.50;;
2257;SDS011;1136;51.574;7.706;2022-11-14T17:00:03;15.37;;;11.97;;
2257;SDS011;1136;51.574;7.706;2022-11-14T17:02:31;14.30;;;11.33;;
2257;SDS011;1136;51.574;7.706;2022-11-14T17:04:57;13.57;;;12.03;;
2257;SDS011;1136;51.574;7.706;2022-11-14T17:07:24;12.97;;;10.80;;
2257;SDS011;1136;51.574;7.706;2022-11-14T17:09:50;11.97;;;10.60;;
2257;SDS011;1136;51.574;7.706;2022-11-14T17:12:17;12.90;;;11.17;;
2257;SDS011;1136;51.574;7.706;2022-11-14T17:14:43;15.97;;;12.63;;
2257;SDS011;1136;51.574;7.706;2022-11-14T17:17:10;16.60;;;12.30;;
2257;SDS011;1136;51.574;7.706;2022-11-14T17:19:36;16.00;;;11.87;;
2257;SDS011;1136;51.574;7.706;2022-11-14T17:22:11;14.43;;;13.03;;
2257;SDS011;1136;51.574;7.706;2022-11-14T17:24:38;15.77;;;13.27;;
2257;SDS011;1136;51.574;7.706;2022-11-14T17:27:05;14.53;;;10.97;;
2257;SDS011;1136;51.574;7.706;2022-11-14T17:29:32;16.80;;;11.73;;
2257;SDS011;1136;51.574;7.706;2022-11-14T17:31:59;18.83;;;12.80;;
2257;SDS011;1136;51.574;7.706;2022-11-14T17:34:26;14.37;;;12.77;;